Terminal Aerodrome Forecast
Issued by NWS

Current Version | Previous Version | Text Only | Print | Product List | Glossary On
Versions: 1 2 3 4 5 6 7 8 9 10 11 12 13 14 15
000
FTUS44 KEPZ 311700
TAFTCS
TAF
KTCS 311730Z 3118/0118 17010KT P6SM VCTS SCT080CB BKN200
      TEMPO 3120/3124 2SM TSRA BKN030CB OVC060
     FM010400 24007KT P6SM VCSH SCT040 BKN060
     FM011500 VRB04KT P6SM SCT030 BKN080=

USA.gov is the U.S. government's official web portal to all federal, state and local government web resources and services.